Time;durP1;ratioP1;P1;durP2;ratioP2;P2;SDS_P1;SDS_P2;PMS_P1;PMS_P2;Temp;Humidity;BMP_temperature;BMP_pressure;BME280_temperature;BME280_humidity;BME280_pressure;Samples;Min_cycle;Max_cycle;Signal;HPM_P1;HPM_P2
2022/04/29 00:00:36;;;;;;;15.40;14.00;;;;;;;15.87;51.61;101733.19;5087111;28;20418;-64
2022/04/29 00:03:04;;;;;;;16.23;14.73;;;;;;;15.91;51.42;101733.66;5087140;28;20461;-64
2022/04/29 00:05:33;;;;;;;15.73;14.23;;;;;;;15.90;51.32;101738.19;5086794;28;20776;-64
2022/04/29 00:08:01;;;;;;;15.70;14.30;;;;;;;15.89;51.68;101733.84;5086810;28;20455;-63
2022/04/29 00:12:59;;;;;;;14.55;13.15;;;;;;;15.86;51.57;101718.16;5085807;28;20814;-64
2022/04/29 00:15:27;;;;;;;15.30;13.90;;;;;;;15.85;51.86;101722.66;5086973;28;20501;-64
2022/04/29 00:17:54;;;;;;;15.13;13.63;;;;;;;15.84;51.94;101715.66;5086889;28;20442;-64
2022/04/29 00:20:22;;;;;;;14.82;13.45;;;;;;;15.89;51.51;101712.44;5086866;28;20936;-64
2022/04/29 00:22:50;;;;;;;14.60;13.20;;;;;;;15.91;51.80;101717.63;5086793;28;20927;-64
2022/04/29 00:25:17;;;;;;;14.20;12.90;;;;;;;15.90;51.81;101718.63;5086734;28;20413;-65
2022/04/29 00:27:44;;;;;;;14.38;12.98;;;;;;;15.94;51.80;101722.63;5087156;28;20411;-64
2022/04/29 00:30:14;;;;;;;13.98;12.57;;;;;;;15.96;51.71;101723.25;5087014;28;20410;-63
2022/04/29 00:32:41;;;;;;;14.15;12.75;;;;;;;15.99;51.57;101723.72;5086937;28;20458;-64
2022/04/29 00:35:10;;;;;;;13.13;11.93;;;;;;;15.97;51.82;101719.56;5086715;28;20410;-63
2022/04/29 00:37:45;;;;;;;13.15;11.85;;;;;;;16.02;51.72;101726.03;5086944;28;20909;-63
2022/04/29 00:40:15;;;;;;;12.60;11.50;;;;;;;15.91;51.90;101729.13;5086774;28;20493;-64
2022/04/29 00:42:43;;;;;;;12.45;11.25;;;;;;;16.02;51.56;101725.19;5086415;28;20925;-64
2022/04/29 00:48:23;;;;;;;11.88;10.80;;;;;;;15.97;52.13;101731.09;5106038;27;20408;-63
2022/04/29 00:51:28;;;;;;;11.82;10.80;;;;;;;16.13;51.69;101718.56;5106521;27;20454;-64
2022/04/29 00:53:57;;;;;;;11.40;10.30;;;;;;;16.17;51.39;101722.53;5107211;28;20416;-64
2022/04/29 00:57:56;;;;;;;11.32;10.32;;;;;;;16.13;51.75;101719.41;5086213;28;20406;-63
2022/04/29 01:00:24;;;;;;;10.90;9.90;;;;;;;16.15;51.52;101719.22;5087337;28;20433;-64
2022/04/29 01:02:53;;;;;;;11.23;10.23;;;;;;;16.08;51.83;101718.28;5086888;28;20406;-63
2022/04/29 01:05:22;;;;;;;11.45;10.35;;;;;;;16.13;51.54;101726.59;5087165;28;20491;-63
2022/04/29 01:07:50;;;;;;;11.30;10.30;;;;;;;16.14;51.72;101729.09;5086694;28;20410;-65
2022/04/29 01:10:20;;;;;;;11.00;10.00;;;;;;;16.16;51.57;101724.41;5086995;28;20438;-63
2022/04/29 01:12:53;;;;;;;10.80;9.80;;;;;;;16.17;51.77;101717.19;5086612;28;20411;-64
2022/04/29 01:19:23;;;;;;;10.25;9.35;;;;;;;16.15;51.78;101722.75;5086256;28;20402;-64
2022/04/29 01:21:51;;;;;;;10.15;9.15;;;;;;;16.16;51.76;101716.38;5087205;28;20499;-63
2022/04/29 01:24:19;;;;;;;10.40;9.50;;;;;;;16.18;51.54;101716.19;5087184;28;20475;-64
2022/04/29 01:26:46;;;;;;;10.13;9.32;;;;;;;16.20;51.66;101716.84;5087062;28;20507;-64
2022/04/29 01:29:15;;;;;;;9.85;8.85;;;;;;;16.17;51.72;101710.03;5086761;28;20405;-64
2022/04/29 01:31:43;;;;;;;9.80;8.90;;;;;;;16.23;51.40;101721.84;5087041;28;20418;-64
2022/04/29 01:34:21;;;;;;;9.80;8.98;;;;;;;16.11;51.98;101712.59;5086214;28;20402;-63
2022/04/29 01:36:48;;;;;;;9.65;8.85;;;;;;;16.18;51.55;101711.66;5087132;28;20480;-63
2022/04/29 01:39:34;;;;;;;10.02;9.23;;;;;;;16.16;51.53;101716.38;5086323;28;20931;-64
2022/04/29 01:42:01;;;;;;;10.63;9.70;;;;;;;16.10;51.77;101708.22;5086853;28;20440;-64
2022/04/29 01:44:28;;;;;;;10.18;9.18;;;;;;;16.13;51.75;101713.22;5087145;28;20442;-64
2022/04/29 01:46:55;;;;;;;10.13;9.23;;;;;;;16.12;51.62;101701.72;5087106;28;20445;-64
2022/04/29 01:49:22;;;;;;;9.65;8.85;;;;;;;16.01;51.87;101702.16;5087115;28;20915;-65
2022/04/29 01:51:49;;;;;;;10.43;9.50;;;;;;;16.01;51.84;101708.34;5087033;28;20445;-64
2022/04/29 01:54:16;;;;;;;9.90;9.10;;;;;;;16.02;51.79;101709.16;5086714;28;20475;-64
2022/04/29 01:56:47;;;;;;;9.85;9.05;;;;;;;15.93;52.01;101710.25;5086635;28;20453;-65
2022/04/29 02:02:49;;;;;;;10.60;9.60;;;;;;;15.83;52.32;101700.63;5086331;28;20402;-64
2022/04/29 02:05:17;;;;;;;10.70;9.80;;;;;;;15.76;52.48;101699.69;5087243;28;20414;-64
2022/04/29 02:07:44;;;;;;;10.63;9.68;;;;;;;15.77;52.64;101703.19;5086859;28;20937;-64
2022/04/29 02:10:12;;;;;;;11.40;10.38;;;;;;;15.67;52.78;101698.06;5086796;28;20410;-64
2022/04/29 02:12:39;;;;;;;11.38;10.38;;;;;;;15.64;52.71;101701.91;5086692;28;20463;-64
2022/04/29 02:15:07;;;;;;;11.45;10.45;;;;;;;15.62;52.79;101701.25;5086947;28;20414;-64
2022/04/29 02:17:34;;;;;;;12.38;10.82;;;;;;;15.56;53.10;101711.88;5086911;28;20410;-64
2022/04/29 02:20:03;;;;;;;11.25;10.25;;;;;;;15.54;53.35;101703.16;5086586;28;20531;-63
2022/04/29 02:22:30;;;;;;;11.32;10.32;;;;;;;15.53;53.06;101706.88;5086478;28;20430;-64
2022/04/29 02:24:59;;;;;;;10.90;10.00;;;;;;;15.50;53.14;101708.03;5086453;28;20785;-65
2022/04/29 02:27:26;;;;;;;11.10;10.20;;;;;;;15.45;53.41;101705.91;5086403;28;20919;-64
2022/04/29 02:29:53;;;;;;;11.80;10.70;;;;;;;15.43;53.43;101705.25;5086715;28;20455;-64
2022/04/29 02:33:37;;;;;;;12.27;11.18;;;;;;;15.36;53.49;101693.63;5086220;28;20402;-64
2022/04/29 02:36:09;;;;;;;11.77;10.68;;;;;;;15.32;53.75;101696.81;5086857;28;20441;-64
2022/04/29 02:40:56;;;;;;;12.00;10.80;;;;;;;15.19;53.95;101713.44;5086247;28;20403;-63
2022/04/29 02:43:23;;;;;;;12.30;11.20;;;;;;;15.15;54.09;101712.13;5086853;28;20927;-63
2022/04/29 02:45:51;;;;;;;12.00;11.00;;;;;;;15.13;54.01;101717.63;5087076;28;20442;-63
2022/04/29 02:48:19;;;;;;;12.50;11.35;;;;;;;15.15;54.38;101710.28;5086828;28;20406;-64
2022/04/29 02:50:46;;;;;;;13.52;12.23;;;;;;;15.13;54.25;101712.28;5086761;28;21003;-63
2022/04/29 02:53:13;;;;;;;13.02;11.73;;;;;;;15.18;54.10;101711.75;5086808;28;20418;-63
2022/04/29 02:55:40;;;;;;;13.48;12.27;;;;;;;15.19;54.23;101713.44;5086993;28;20460;-63
2022/04/29 02:58:48;;;;;;;13.20;12.00;;;;;;;15.18;54.15;101709.94;5086203;28;20459;-64
2022/04/29 03:01:15;;;;;;;13.52;12.23;;;;;;;15.08;53.83;101718.16;5087189;28;20445;-64
2022/04/29 03:03:42;;;;;;;13.02;11.93;;;;;;;15.06;53.74;101717.50;5087146;28;20409;-64
2022/04/29 03:06:09;;;;;;;13.02;11.93;;;;;;;14.97;53.84;101723.88;5087191;28;20468;-63
2022/04/29 03:10:58;;;;;;;13.77;12.57;;;;;;;14.93;53.91;101740.41;5086285;28;20489;-63
2022/04/29 03:13:27;;;;;;;13.52;12.43;;;;;;;14.84;54.20;101732.47;5086987;28;20410;-63
2022/04/29 03:15:54;;;;;;;14.18;13.00;;;;;;;14.83;53.90;101740.63;5086898;28;20947;-63
2022/04/29 03:18:24;;;;;;;14.68;13.35;;;;;;;14.75;54.56;101741.50;5086869;28;20414;-63
2022/04/29 03:20:56;;;;;;;15.55;14.15;;;;;;;14.81;54.17;101745.31;5087105;28;20414;-64
2022/04/29 03:23:23;;;;;;;14.10;12.95;;;;;;;14.77;54.04;101733.31;5087263;28;20414;-63
2022/04/29 03:25:50;;;;;;;14.63;13.27;;;;;;;14.76;54.18;101737.81;5087097;28;20503;-64
2022/04/29 03:28:19;;;;;;;13.85;12.65;;;;;;;14.79;54.00;101742.81;5086985;28;20826;-63
2022/04/29 03:30:47;;;;;;;14.50;13.10;;;;;;;14.79;54.01;101748.16;5086591;28;20483;-63
2022/04/29 03:33:14;;;;;;;14.40;13.20;;;;;;;14.76;54.26;101753.00;5086997;28;20418;-64
2022/04/29 03:35:42;;;;;;;13.38;12.25;;;;;;;14.72;54.30;101755.19;5086552;28;20406;-64
2022/04/29 03:38:09;;;;;;;14.80;13.50;;;;;;;14.69;54.33;101761.72;5086986;28;20464;-63
2022/04/29 03:40:36;;;;;;;14.23;13.02;;;;;;;14.70;54.37;101770.53;5086497;28;20535;-64
2022/04/29 03:43:04;;;;;;;14.63;13.13;;;;;;;14.71;54.13;101775.72;5086734;28;20528;-64
2022/04/29 03:45:33;;;;;;;14.43;13.05;;;;;;;14.74;54.13;101773.69;5086701;28;20414;-64
2022/04/29 03:48:00;;;;;;;14.48;13.20;;;;;;;14.74;54.04;101771.84;5086319;28;20903;-64
2022/04/29 03:50:28;;;;;;;15.77;14.13;;;;;;;14.78;53.95;101767.00;5086155;28;20430;-63
2022/04/29 03:52:57;;;;;;;13.90;12.70;;;;;;;14.81;53.66;101770.16;5086570;28;20505;-63
2022/04/29 03:55:26;;;;;;;14.18;12.88;;;;;;;14.82;53.75;101771.84;5086223;28;20418;-63
2022/04/29 03:57:54;;;;;;;14.38;12.90;;;;;;;14.87;53.67;101779.31;5086710;28;20403;-63
2022/04/29 04:00:22;;;;;;;13.88;12.57;;;;;;;15.01;53.24;101781.28;5086142;28;20446;-64
2022/04/29 04:02:50;;;;;;;13.65;12.45;;;;;;;15.18;52.87;101774.03;5086065;28;20410;-64
2022/04/29 04:05:18;;;;;;;13.30;12.10;;;;;;;15.43;52.08;101765.88;5085857;28;20926;-64
2022/04/29 04:07:45;;;;;;;13.15;12.02;;;;;;;15.71;51.11;101768.88;5086003;28;20441;-64
2022/04/29 04:10:13;;;;;;;12.98;11.77;;;;;;;15.91;50.61;101771.09;5100491;28;20460;-64
2022/04/29 04:12:41;;;;;;;12.37;11.27;;;;;;;16.08;50.17;101767.28;5106068;28;20417;-64
2022/04/29 04:15:10;;;;;;;12.93;11.73;;;;;;;16.37;49.53;101769.19;5106113;28;20964;-64
2022/04/29 04:17:37;;;;;;;13.57;11.00;;;;;;;16.65;48.79;101778.44;5106002;28;20457;-64
2022/04/29 04:20:08;;;;;;;11.95;10.80;;;;;;;16.96;47.94;101778.25;5105730;28;20404;-64
2022/04/29 04:22:36;;;;;;;12.35;11.02;;;;;;;17.29;46.91;101778.69;5092162;28;20432;-64
2022/04/29 04:25:04;;;;;;;10.67;9.77;;;;;;;17.67;46.19;101785.69;5092179;28;20409;-63
2022/04/29 04:27:31;;;;;;;11.90;10.73;;;;;;;17.98;45.16;101785.41;5092496;28;20867;-64
2022/04/29 04:29:58;;;;;;;11.52;10.43;;;;;;;18.24;44.62;101786.63;5092066;28;20429;-64
2022/04/29 04:32:25;;;;;;;13.38;10.45;;;;;;;18.73;43.53;101772.31;5092368;28;20444;-63
2022/04/29 04:34:54;;;;;;;13.70;10.50;;;;;;;19.08;42.86;101774.97;5092329;28;20409;-64
2022/04/29 04:37:25;;;;;;;14.07;10.20;;;;;;;19.50;41.75;101773.06;5092095;28;20505;-64
2022/04/29 04:39:52;;;;;;;11.20;10.03;;;;;;;19.86;40.71;101788.88;5092231;28;20482;-64
2022/04/29 04:42:20;;;;;;;10.77;9.68;;;;;;;20.27;39.80;101796.94;5092156;28;20485;-63
2022/04/29 04:44:48;;;;;;;10.35;9.27;;;;;;;20.74;38.95;101795.91;5091829;28;20417;-63
2022/04/29 04:48:55;;;;;;;10.13;9.13;;;;;;;21.23;37.66;101796.34;5085979;28;20452;-65
2022/04/29 04:51:22;;;;;;;10.93;8.82;;;;;;;21.63;36.98;101804.25;5086728;28;20414;-64
2022/04/29 04:53:49;;;;;;;10.93;8.75;;;;;;;22.19;36.00;101807.97;5086684;28;20410;-64
2022/04/29 04:56:16;;;;;;;11.27;9.30;;;;;;;22.40;35.51;101811.34;5086940;28;20900;-65
2022/04/29 04:58:43;;;;;;;10.32;9.00;;;;;;;22.74;34.92;101809.97;5086644;28;20410;-65
2022/04/29 05:01:10;;;;;;;8.83;7.93;;;;;;;23.14;34.39;101797.88;5086918;28;20788;-64
2022/04/29 05:03:37;;;;;;;8.60;7.75;;;;;;;23.51;33.55;101798.66;5086689;28;20992;-64
2022/04/29 05:06:06;;;;;;;8.35;6.97;;;;;;;24.08;32.96;101800.13;5086449;28;20880;-65
2022/04/29 05:08:33;;;;;;;10.02;7.03;;;;;;;24.78;31.71;101794.69;5086361;28;20430;-64
2022/04/29 05:11:00;;;;;;;7.30;6.55;;;;;;;25.26;30.92;101797.28;5086547;28;20418;-64
2022/04/29 05:13:27;;;;;;;9.48;7.00;;;;;;;25.60;30.21;101797.38;5086433;28;20440;-64
2022/04/29 05:15:54;;;;;;;7.80;6.40;;;;;;;26.05;29.75;101802.78;5086340;28;20924;-64
2022/04/29 05:18:21;;;;;;;7.57;5.93;;;;;;;26.74;28.66;101798.06;5086592;28;20414;-65
2022/04/29 05:20:48;;;;;;;7.15;5.55;;;;;;;27.36;28.04;101789.59;5086259;28;20440;-64
2022/04/29 05:23:17;;;;;;;6.85;5.38;;;;;;;27.80;27.29;101783.16;5086575;28;20417;-64
2022/04/29 05:25:44;;;;;;;6.28;5.68;;;;;;;28.22;26.68;101793.34;5086206;28;20836;-64
2022/04/29 05:28:11;;;;;;;5.50;3.90;;;;;;;28.53;26.14;101790.78;5085981;28;20469;-64
2022/04/29 05:30:38;;;;;;;4.30;4.00;;;;;;;28.92;25.29;101795.91;5086361;28;20445;-65
2022/04/29 05:33:06;;;;;;;4.28;3.88;;;;;;;29.21;25.11;101790.84;5085997;28;20784;-64
2022/04/29 05:35:35;;;;;;;22.75;4.43;;;;;;;29.72;24.27;101792.81;5086355;28;20463;-64
2022/04/29 05:38:02;;;;;;;14.88;3.70;;;;;;;30.17;23.57;101799.34;5085959;28;20406;-64
2022/04/29 05:43:15;;;;;;;2.80;2.50;;;;;;;30.71;22.92;101795.13;5085916;28;20406;-65
2022/04/29 05:45:43;;;;;;;3.33;2.20;;;;;;;30.92;22.75;101798.63;5086190;28;20467;-62
2022/04/29 05:48:10;;;;;;;2.47;1.73;;;;;;;31.02;22.17;101804.03;5100617;28;20525;-64
2022/04/29 05:50:37;;;;;;;5.30;2.20;;;;;;;31.30;21.96;101792.69;5106303;28;20943;-62
2022/04/29 05:53:04;;;;;;;1.98;1.85;;;;;;;31.49;21.58;101787.34;5105940;28;20910;-63
2022/04/29 05:55:32;;;;;;;2.77;2.20;;;;;;;31.68;21.61;101790.25;5106451;28;20440;-63
2022/04/29 05:57:59;;;;;;;1.90;1.80;;;;;;;31.72;21.20;101799.50;5105683;28;20404;-63
2022/04/29 06:00:26;;;;;;;5.00;1.90;;;;;;;31.99;21.28;101799.81;5091705;28;20412;-63
2022/04/29 06:02:53;;;;;;;4.45;2.00;;;;;;;32.04;21.22;101795.44;5092562;28;20475;-63
2022/04/29 06:05:20;;;;;;;4.38;1.80;;;;;;;32.22;21.06;101797.44;5092534;28;20417;-63
2022/04/29 06:07:48;;;;;;;2.40;1.80;;;;;;;32.51;20.39;101793.81;5092069;28;20521;-62
2022/04/29 06:10:15;;;;;;;2.90;1.90;;;;;;;32.54;20.73;101796.00;5092390;28;20985;-64
2022/04/29 06:12:44;;;;;;;2.60;1.50;;;;;;;32.26;20.84;101795.72;5092442;28;20414;-62
2022/04/29 06:15:15;;;;;;;4.07;1.50;;;;;;;32.64;20.29;101793.13;5092369;28;20914;-62
2022/04/29 06:17:42;;;;;;;3.50;1.30;;;;;;;32.74;20.46;101793.00;5091966;28;20416;-64
2022/04/29 06:20:10;;;;;;;3.33;1.55;;;;;;;32.74;19.97;101792.19;5092268;28;20416;-63
2022/04/29 06:22:43;;;;;;;4.43;1.65;;;;;;;32.94;20.04;101785.63;5092217;28;20984;-63
2022/04/29 06:25:11;;;;;;;4.30;1.83;;;;;;;33.68;19.33;101777.66;5091842;28;20424;-63
2022/04/29 06:27:38;;;;;;;2.05;1.40;;;;;;;34.22;18.64;101780.84;5091791;28;20946;-62
2022/04/29 06:30:09;;;;;;;3.88;1.70;;;;;;;34.74;18.26;101779.84;5092034;28;20416;-66
2022/04/29 06:32:36;;;;;;;3.90;1.52;;;;;;;35.21;17.63;101775.75;5091851;28;20814;-62
2022/04/29 06:35:06;;;;;;;3.17;1.57;;;;;;;35.36;17.65;101774.53;5091690;28;20926;-65
2022/04/29 06:37:33;;;;;;;2.28;1.48;;;;;;;34.97;17.73;101778.75;5091565;28;20524;-62
2022/04/29 06:40:00;;;;;;;3.03;1.40;;;;;;;34.66;17.87;101786.81;5091970;28;20550;-62
2022/04/29 06:42:27;;;;;;;2.20;1.50;;;;;;;34.28;18.47;101781.53;5091551;28;20413;-64
2022/04/29 06:44:54;;;;;;;7.07;2.35;;;;;;;34.04;18.73;101784.47;5091747;28;20498;-63
2022/04/29 06:47:22;;;;;;;5.07;1.65;;;;;;;33.16;19.70;101779.56;5091503;28;20474;-64
2022/04/29 06:49:50;;;;;;;4.78;1.65;;;;;;;33.57;19.34;101789.91;5091504;28;20409;-62
2022/04/29 06:52:17;;;;;;;11.70;2.60;;;;;;;33.24;19.63;101789.06;5091689;28;20415;-64
2022/04/29 06:54:44;;;;;;;21.23;3.50;;;;;;;33.56;19.65;101787.47;5091302;28;20906;-65
2022/04/29 06:57:11;;;;;;;4.65;1.60;;;;;;;33.65;19.11;101793.91;5091467;28;20405;-64
2022/04/29 06:59:38;;;;;;;5.25;2.00;;;;;;;32.88;19.94;101786.78;5091433;28;20413;-65
2022/04/29 07:02:06;;;;;;;4.35;1.75;;;;;;;33.17;19.41;101783.94;5091176;28;20483;-65
2022/04/29 07:04:34;;;;;;;5.07;1.58;;;;;;;33.26;19.56;101778.56;5091061;28;20405;-65
2022/04/29 07:07:01;;;;;;;3.50;1.48;;;;;;;32.91;19.74;101781.50;5091022;28;20413;-64
2022/04/29 07:09:28;;;;;;;4.95;1.70;;;;;;;32.25;20.11;101785.88;5090806;28;20461;-64
2022/04/29 07:11:56;;;;;;;3.58;1.40;;;;;;;31.90;20.57;101785.09;5090211;28;20404;-64
2022/04/29 07:14:23;;;;;;;2.05;1.70;;;;;;;31.29;21.60;101791.03;5091141;28;20409;-64
2022/04/29 07:16:50;;;;;;;1.42;1.33;;;;;;;30.23;22.76;101786.50;5091192;28;20437;-64
2022/04/29 07:19:17;;;;;;;3.20;1.60;;;;;;;30.40;22.82;101786.22;5091035;28;20417;-65
2022/04/29 07:21:46;;;;;;;2.95;2.05;;;;;;;30.34;22.23;101793.59;5090676;28;20416;-64
2022/04/29 07:24:13;;;;;;;4.15;1.60;;;;;;;29.97;23.02;101785.72;5091100;28;20498;-65
2022/04/29 07:26:40;;;;;;;2.47;1.50;;;;;;;29.87;23.22;101794.75;5090884;28;20488;-64
2022/04/29 07:29:08;;;;;;;4.47;1.88;;;;;;;29.77;23.12;101792.84;5090514;28;20825;-64
2022/04/29 07:31:35;;;;;;;3.70;2.13;;;;;;;29.18;23.94;101794.09;5090591;28;20413;-65
2022/04/29 07:34:02;;;;;;;3.85;1.80;;;;;;;29.17;23.84;101795.16;5090604;28;20405;-64
2022/04/29 07:41:58;;;;;;;3.35;1.55;;;;;;;27.96;25.68;101801.31;5049287;28;20401;-64
2022/04/29 07:44:25;;;;;;;2.67;1.52;;;;;;;27.70;25.45;101791.28;5090663;28;20490;-64
2022/04/29 07:46:53;;;;;;;2.42;2.10;;;;;;;27.53;26.35;101789.50;5090205;28;20417;-64
2022/04/29 07:49:21;;;;;;;2.47;1.50;;;;;;;27.05;26.59;101802.03;5090167;28;20792;-64
2022/04/29 07:51:48;;;;;;;3.55;1.80;;;;;;;26.99;26.57;101794.84;5090166;28;20405;-64
2022/04/29 07:54:16;;;;;;;3.08;2.78;;;;;;;26.56;26.49;101788.28;5090073;28;20470;-64
2022/04/29 07:56:43;;;;;;;2.00;1.50;;;;;;;26.13;27.61;101796.13;5090368;28;20911;-64
2022/04/29 07:59:10;;;;;;;3.72;1.65;;;;;;;26.29;27.61;101789.84;5090339;28;20443;-64
2022/04/29 08:01:40;;;;;;;1.60;1.30;;;;;;;25.54;28.61;101791.03;5090322;28;20522;-64
2022/04/29 08:04:07;;;;;;;2.30;1.40;;;;;;;25.09;29.22;101789.88;5090362;28;20416;-64
2022/04/29 08:06:34;;;;;;;2.40;1.30;;;;;;;25.20;29.33;101790.91;5089942;28;20906;-64
2022/04/29 08:09:01;;;;;;;5.35;1.90;;;;;;;25.24;29.05;101785.81;5089772;28;20429;-65
2022/04/29 08:11:31;;;;;;;3.25;1.90;;;;;;;25.03;29.22;101788.16;5090128;28;20416;-65
2022/04/29 08:13:58;;;;;;;2.30;1.52;;;;;;;24.61;29.72;101788.34;5090160;28;20498;-65
2022/04/29 08:16:25;;;;;;;2.60;1.65;;;;;;;24.50;30.02;101792.69;5089766;28;20483;-64
2022/04/29 08:18:53;;;;;;;2.90;1.85;;;;;;;24.09;31.04;101802.56;5089749;28;20409;-64
2022/04/29 08:21:20;;;;;;;4.15;2.00;;;;;;;24.38;30.93;101791.88;5089803;28;20958;-64
2022/04/29 08:23:47;;;;;;;3.00;1.50;;;;;;;24.61;30.63;101791.06;5089730;28;20914;-64
2022/04/29 08:26:14;;;;;;;1.70;1.30;;;;;;;24.74;31.04;101795.41;5089952;28;20490;-64
2022/04/29 08:28:42;;;;;;;1.67;1.50;;;;;;;24.30;31.61;101798.47;5089553;28;20942;-64
2022/04/29 08:31:10;;;;;;;3.47;1.60;;;;;;;24.37;31.38;101801.88;5089878;28;20491;-64
2022/04/29 08:33:37;;;;;;;2.53;1.57;;;;;;;24.40;31.39;101798.72;5089446;28;20449;-65
2022/04/29 08:36:04;;;;;;;2.90;1.80;;;;;;;24.37;31.37;101798.34;5089800;28;20440;-63
2022/04/29 08:38:32;;;;;;;5.28;1.70;;;;;;;24.57;31.54;101798.03;5089734;28;20437;-64
2022/04/29 08:41:02;;;;;;;5.50;2.00;;;;;;;23.88;32.80;101795.84;5089789;28;20412;-64
2022/04/29 08:43:29;;;;;;;7.03;2.05;;;;;;;24.12;32.24;101802.09;5089359;28;20844;-64
2022/04/29 08:45:58;;;;;;;4.20;1.80;;;;;;;24.09;32.63;101799.88;5089346;28;20409;-64
2022/04/29 08:48:25;;;;;;;2.95;1.90;;;;;;;24.39;31.60;101791.63;5089032;28;20555;-65
2022/04/29 08:50:52;;;;;;;2.50;1.50;;;;;;;24.21;31.43;101794.47;5089281;28;20409;-64
2022/04/29 08:53:19;;;;;;;1.50;1.40;;;;;;;23.34;32.44;101784.13;5089362;28;20510;-64
2022/04/29 08:58:41;;;;;;;4.35;1.70;;;;;;;23.61;32.17;101779.97;5089404;28;20408;-64
2022/04/29 09:01:13;;;;;;;2.28;1.40;;;;;;;24.03;31.26;101784.56;5089247;28;20424;-65
2022/04/29 09:03:43;;;;;;;1.60;1.45;;;;;;;23.33;32.15;101779.75;5089590;28;20401;-64
2022/04/29 09:06:10;;;;;;;2.85;1.55;;;;;;;22.94;33.40;101777.31;5089211;28;20505;-64
2022/04/29 09:08:41;;;;;;;4.25;2.80;;;;;;;23.41;32.68;101777.56;5089128;28;20933;-64
2022/04/29 09:11:10;;;;;;;2.43;1.30;;;;;;;22.84;34.13;101772.44;5089159;28;20491;-64
2022/04/29 09:13:38;;;;;;;4.37;1.60;;;;;;;23.32;33.18;101772.69;5089137;28;20450;-64
2022/04/29 09:16:10;;;;;;;3.30;1.80;;;;;;;23.32;32.61;101767.28;5089055;28;20863;-63
2022/04/29 09:18:40;;;;;;;2.33;1.33;;;;;;;23.52;31.84;101772.44;5089406;28;20439;-65
2022/04/29 09:21:10;;;;;;;2.28;1.90;;;;;;;23.77;31.58;101761.41;5089379;28;20409;-64
2022/04/29 09:23:39;;;;;;;2.30;2.00;;;;;;;22.90;32.71;101763.44;5089055;28;20424;-63
2022/04/29 09:26:07;;;;;;;3.13;1.73;;;;;;;22.89;32.77;101758.25;5088983;28;20405;-64
2022/04/29 09:28:36;;;;;;;2.20;1.60;;;;;;;23.18;32.58;101764.75;5088942;28;20433;-64
2022/04/29 09:31:04;;;;;;;3.60;1.90;;;;;;;23.37;32.49;101756.59;5088825;28;20409;-63
2022/04/29 09:33:35;;;;;;;1.60;1.50;;;;;;;23.51;32.02;101757.22;5088811;28;20924;-64
2022/04/29 09:36:03;;;;;;;5.13;1.80;;;;;;;22.92;33.16;101760.47;5092874;28;20449;-64
2022/04/29 09:41:23;;;;;;;1.80;1.70;;;;;;;23.58;31.90;101757.97;5092842;28;20478;-64
2022/04/29 09:44:28;;;;;;;3.50;1.88;;;;;;;23.79;31.26;101757.41;5086321;28;20456;-64
2022/04/29 09:46:55;;;;;;;2.67;1.77;;;;;;;23.80;31.60;101752.84;5086816;28;20424;-64
2022/04/29 09:49:28;;;;;;;3.95;1.70;;;;;;;23.52;31.71;101758.91;5086854;28;20414;-64
2022/04/29 09:51:55;;;;;;;1.77;1.40;;;;;;;23.29;32.03;101747.75;5087036;28;20489;-65
2022/04/29 09:54:24;;;;;;;3.03;1.55;;;;;;;23.38;31.73;101763.66;5086698;28;20471;-64
2022/04/29 09:57:06;;;;;;;1.83;1.35;;;;;;;22.55;32.85;101752.41;5086665;28;20827;-64
2022/04/29 09:59:36;;;;;;;2.17;1.38;;;;;;;22.56;32.73;101747.81;5087004;28;20402;-64
2022/04/29 10:02:05;;;;;;;2.55;1.30;;;;;;;22.64;32.20;101744.81;5086557;28;20494;-65
2022/04/29 10:04:34;;;;;;;2.38;1.40;;;;;;;22.35;32.96;101758.00;5087370;28;20407;-64
2022/04/29 10:07:04;;;;;;;2.45;1.50;;;;;;;22.57;32.96;101741.38;5086825;28;20418;-64
2022/04/29 10:09:33;;;;;;;2.20;1.40;;;;;;;22.56;33.18;101745.91;5087029;28;20525;-64
2022/04/29 10:12:02;;;;;;;2.30;1.30;;;;;;;22.15;33.26;101752.78;5086398;28;20426;-64
2022/04/29 10:14:31;;;;;;;1.85;1.30;;;;;;;21.94;34.01;101751.28;5086665;28;20959;-64
2022/04/29 10:22:41;;;;;;;1.20;1.10;;;;;;;21.77;33.78;101751.00;5086203;28;20437;-64
2022/04/29 10:27:26;;;;;;;2.83;1.30;;;;;;;22.21;33.35;101745.66;5086111;28;20397;-64
2022/04/29 10:29:54;;;;;;;1.30;1.20;;;;;;;21.91;33.28;101743.63;5087164;28;20480;-65
2022/04/29 10:32:21;;;;;;;1.40;1.20;;;;;;;21.91;33.41;101746.31;5086811;28;20446;-64
2022/04/29 10:34:49;;;;;;;3.30;1.70;;;;;;;22.25;32.95;101742.25;5086768;28;20410;-64
2022/04/29 10:37:45;;;;;;;4.97;2.17;;;;;;;22.51;32.63;101738.50;5086166;28;20402;-64
2022/04/29 10:40:13;;;;;;;20.25;3.00;;;;;;;22.39;33.04;101742.19;5086774;28;20471;-65
2022/04/29 10:43:06;;;;;;;3.03;1.60;;;;;;;22.49;32.69;101745.16;5087050;28;20892;-64
2022/04/29 10:45:33;;;;;;;2.35;1.48;;;;;;;22.62;32.65;101741.53;5086766;28;20418;-63
2022/04/29 10:48:20;;;;;;;2.63;1.60;;;;;;;22.28;33.19;101758.06;5086756;28;20895;-62
2022/04/29 10:50:47;;;;;;;4.22;3.45;;;;;;;21.47;34.90;101765.09;5086520;28;20977;-64
2022/04/29 10:53:15;;;;;;;4.68;2.47;;;;;;;21.65;35.01;101758.16;5086958;28;20412;-64
2022/04/29 10:55:42;;;;;;;3.78;2.70;;;;;;;21.37;35.53;101762.00;5086961;28;20535;-65
2022/04/29 10:58:22;;;;;;;6.55;4.63;;;;;;;21.16;36.06;101760.50;5086170;28;20749;-65
2022/04/29 11:00:56;;;;;;;6.20;2.72;;;;;;;21.43;35.29;101749.53;5086841;28;20446;-64
2022/04/29 11:03:36;;;;;;;1.30;1.20;;;;;;;21.47;34.77;101748.09;5087113;28;20930;-64
2022/04/29 11:06:11;;;;;;;1.40;1.30;;;;;;;21.62;34.33;101745.09;5087071;28;20502;-64
2022/04/29 11:08:38;;;;;;;1.70;1.25;;;;;;;21.78;34.46;101741.84;5086692;28;20497;-65
2022/04/29 11:11:06;;;;;;;2.30;1.40;;;;;;;21.51;34.96;101742.03;5086767;28;20927;-64
2022/04/29 11:13:37;;;;;;;1.88;1.30;;;;;;;21.69;34.07;101744.00;5086953;28;20437;-64
2022/04/29 11:16:12;;;;;;;1.65;1.20;;;;;;;21.67;34.69;101746.09;5086850;28;20413;-65
2022/04/29 11:20:21;;;;;;;2.42;2.13;;;;;;;21.55;34.98;101745.13;5086145;28;20460;-63
2022/04/29 11:25:49;;;;;;;1.40;1.30;;;;;;;21.33;35.17;101745.44;5086884;28;20410;-64
2022/04/29 11:28:17;;;;;;;4.38;1.73;;;;;;;21.29;35.31;101743.41;5086779;28;20413;-65
2022/04/29 11:30:44;;;;;;;2.77;1.30;;;;;;;20.81;35.82;101747.34;5087045;28;20475;-64
2022/04/29 11:33:11;;;;;;;3.40;1.67;;;;;;;21.18;35.57;101739.53;5087010;28;20427;-64
2022/04/29 11:35:40;;;;;;;5.03;2.00;;;;;;;21.19;36.13;101742.00;5086720;28;20445;-64
2022/04/29 11:38:09;;;;;;;3.22;1.95;;;;;;;20.77;37.09;101743.44;5086808;28;20422;-64
2022/04/29 11:40:40;;;;;;;4.70;2.47;;;;;;;20.88;37.58;101731.97;5086940;28;20501;-64
2022/04/29 11:43:10;;;;;;;2.00;1.90;;;;;;;20.80;37.28;101738.44;5086839;28;20528;-64
2022/04/29 11:45:39;;;;;;;3.80;2.10;;;;;;;20.90;37.67;101732.59;5086456;28;20414;-64
2022/04/29 11:48:07;;;;;;;3.83;2.15;;;;;;;20.86;37.24;101728.66;5086777;28;20489;-65
2022/04/29 11:50:36;;;;;;;3.72;2.13;;;;;;;20.76;37.02;101729.13;5086376;28;21030;-65
2022/04/29 11:53:09;;;;;;;3.72;2.35;;;;;;;20.79;36.84;101733.25;5086710;28;20414;-64
2022/04/29 11:55:37;;;;;;;3.80;2.30;;;;;;;20.83;37.00;101721.00;5086304;28;20467;-64
2022/04/29 11:58:05;;;;;;;3.83;2.08;;;;;;;20.82;36.88;101730.16;5086487;28;20464;-62
2022/04/29 12:00:34;;;;;;;3.55;2.20;;;;;;;21.02;36.17;101724.66;5086142;28;20445;-63
2022/04/29 12:03:04;;;;;;;2.20;2.00;;;;;;;21.06;35.91;101720.50;5086079;28;20940;-64
2022/04/29 12:05:32;;;;;;;3.38;2.10;;;;;;;21.12;35.88;101725.03;5085957;28;20934;-62
2022/04/29 12:08:01;;;;;;;2.67;1.90;;;;;;;20.76;35.61;101723.75;5085994;28;20406;-65
2022/04/29 12:10:31;;;;;;;2.05;1.85;;;;;;;20.87;35.56;101716.03;5086317;28;20493;-65
2022/04/29 12:13:00;;;;;;;2.53;1.70;;;;;;;21.23;35.00;101712.75;5085928;28;20459;-65
2022/04/29 12:15:30;;;;;;;2.65;1.70;;;;;;;21.44;34.96;101716.13;5086148;28;20765;-64